sensor_id;sensor_type;location;lat;lon;timestamp;temperature;humidity
9371;DHT22;4725;48.384;8.984;2023-04-24T00:00:25;9.90;99.90
9371;DHT22;4725;48.384;8.984;2023-04-24T00:02:53;9.80;99.90
9371;DHT22;4725;48.384;8.984;2023-04-24T00:05:22;9.80;99.90
9371;DHT22;4725;48.384;8.984;2023-04-24T00:07:49;9.80;99.90
9371;DHT22;4725;48.384;8.984;2023-04-24T00:10:18;9.80;99.90
9371;DHT22;4725;48.384;8.984;2023-04-24T00:12:45;9.80;99.90
9371;DHT22;4725;48.384;8.984;2023-04-24T00:15:12;9.70;99.90
9371;DHT22;4725;48.384;8.984;2023-04-24T00:17:39;9.70;99.90
9371;DHT22;4725;48.384;8.984;2023-04-24T00:20:08;9.70;99.90
9371;DHT22;4725;48.384;8.984;2023-04-24T00:22:36;9.70;99.90
9371;DHT22;4725;48.384;8.984;2023-04-24T00:25:04;9.70;99.90
9371;DHT22;4725;48.384;8.984;2023-04-24T00:27:31;9.80;99.90
9371;DHT22;4725;48.384;8.984;2023-04-24T00:29:58;9.80;99.90
9371;DHT22;4725;48.384;8.984;2023-04-24T00:32:25;9.80;99.90
9371;DHT22;4725;48.384;8.984;2023-04-24T00:34:51;9.80;99.90
9371;DHT22;4725;48.384;8.984;2023-04-24T00:37:20;9.80;99.90
9371;DHT22;4725;48.384;8.984;2023-04-24T00:39:46;9.70;99.90
9371;DHT22;4725;48.384;8.984;2023-04-24T00:42:13;9.70;99.90
9371;DHT22;4725;48.384;8.984;2023-04-24T00:44:41;9.60;99.90
9371;DHT22;4725;48.384;8.984;2023-04-24T00:47:08;9.50;99.90
9371;DHT22;4725;48.384;8.984;2023-04-24T00:49:34;9.50;99.90
9371;DHT22;4725;48.384;8.984;2023-04-24T00:52:01;9.40;99.90
9371;DHT22;4725;48.384;8.984;2023-04-24T00:54:34;9.40;99.90
9371;DHT22;4725;48.384;8.984;2023-04-24T00:57:01;9.50;99.90
9371;DHT22;4725;48.384;8.984;2023-04-24T00:59:28;9.50;99.90
9371;DHT22;4725;48.384;8.984;2023-04-24T01:01:56;9.50;99.90
9371;DHT22;4725;48.384;8.984;2023-04-24T01:04:23;9.50;99.90
9371;DHT22;4725;48.384;8.984;2023-04-24T01:06:52;9.30;99.90
9371;DHT22;4725;48.384;8.984;2023-04-24T01:09:20;9.30;99.90
9371;DHT22;4725;48.384;8.984;2023-04-24T01:11:49;9.20;99.90
9371;DHT22;4725;48.384;8.984;2023-04-24T01:14:16;9.10;99.90
9371;DHT22;4725;48.384;8.984;2023-04-24T01:16:43;8.90;99.90
9371;DHT22;4725;48.384;8.984;2023-04-24T01:19:10;8.90;99.90
9371;DHT22;4725;48.384;8.984;2023-04-24T01:21:38;8.80;99.90
9371;DHT22;4725;48.384;8.984;2023-04-24T01:24:07;8.80;99.90
9371;DHT22;4725;48.384;8.984;2023-04-24T01:26:34;8.80;99.90
9371;DHT22;4725;48.384;8.984;2023-04-24T01:29:01;8.80;99.90
9371;DHT22;4725;48.384;8.984;2023-04-24T01:31:28;8.80;99.90
9371;DHT22;4725;48.384;8.984;2023-04-24T01:33:56;8.80;99.90
9371;DHT22;4725;48.384;8.984;2023-04-24T01:36:24;8.70;99.90
9371;DHT22;4725;48.384;8.984;2023-04-24T01:38:52;8.80;99.90
9371;DHT22;4725;48.384;8.984;2023-04-24T01:41:21;8.80;99.90
9371;DHT22;4725;48.384;8.984;2023-04-24T01:43:48;8.70;99.90
9371;DHT22;4725;48.384;8.984;2023-04-24T01:46:15;8.80;99.90
9371;DHT22;4725;48.384;8.984;2023-04-24T01:51:09;9.10;99.90
9371;DHT22;4725;48.384;8.984;2023-04-24T01:53:36;9.20;99.90
9371;DHT22;4725;48.384;8.984;2023-04-24T01:58:32;9.20;99.90
9371;DHT22;4725;48.384;8.984;2023-04-24T02:00:59;9.10;99.90
9371;DHT22;4725;48.384;8.984;2023-04-24T02:03:26;9.10;99.90
9371;DHT22;4725;48.384;8.984;2023-04-24T02:05:53;9.10;99.90
9371;DHT22;4725;48.384;8.984;2023-04-24T02:10:47;8.90;99.90
9371;DHT22;4725;48.384;8.984;2023-04-24T02:13:14;8.80;99.90
9371;DHT22;4725;48.384;8.984;2023-04-24T02:15:42;8.60;99.90
9371;DHT22;4725;48.384;8.984;2023-04-24T02:18:09;8.60;99.90
9371;DHT22;4725;48.384;8.984;2023-04-24T02:20:36;8.50;99.90
9371;DHT22;4725;48.384;8.984;2023-04-24T02:23:03;8.50;99.90
9371;DHT22;4725;48.384;8.984;2023-04-24T02:25:30;8.50;99.90
9371;DHT22;4725;48.384;8.984;2023-04-24T02:27:57;8.40;99.90
9371;DHT22;4725;48.384;8.984;2023-04-24T02:30:24;8.30;99.90
9371;DHT22;4725;48.384;8.984;2023-04-24T02:32:52;8.30;99.90
9371;DHT22;4725;48.384;8.984;2023-04-24T02:35:19;8.30;99.90
9371;DHT22;4725;48.384;8.984;2023-04-24T02:37:46;8.20;99.90
9371;DHT22;4725;48.384;8.984;2023-04-24T02:40:13;8.20;99.90
9371;DHT22;4725;48.384;8.984;2023-04-24T02:42:40;8.10;99.90
9371;DHT22;4725;48.384;8.984;2023-04-24T02:45:07;8.10;99.90
9371;DHT22;4725;48.384;8.984;2023-04-24T02:47:34;8.10;99.90
9371;DHT22;4725;48.384;8.984;2023-04-24T02:50:03;8.10;99.90
9371;DHT22;4725;48.384;8.984;2023-04-24T02:52:30;8.10;99.90
9371;DHT22;4725;48.384;8.984;2023-04-24T02:54:57;8.10;99.90
9371;DHT22;4725;48.384;8.984;2023-04-24T02:57:24;8.10;99.90
9371;DHT22;4725;48.384;8.984;2023-04-24T02:59:51;8.10;99.90
9371;DHT22;4725;48.384;8.984;2023-04-24T03:02:17;8.10;99.90
9371;DHT22;4725;48.384;8.984;2023-04-24T03:07:15;8.00;99.90
9371;DHT22;4725;48.384;8.984;2023-04-24T03:09:42;8.00;99.90
9371;DHT22;4725;48.384;8.984;2023-04-24T03:12:08;7.90;99.90
9371;DHT22;4725;48.384;8.984;2023-04-24T03:14:35;8.00;99.90
9371;DHT22;4725;48.384;8.984;2023-04-24T03:17:02;8.00;99.90
9371;DHT22;4725;48.384;8.984;2023-04-24T03:19:30;8.90;99.90
9371;DHT22;4725;48.384;8.984;2023-04-24T03:21:56;8.10;99.90
9371;DHT22;4725;48.384;8.984;2023-04-24T03:24:25;8.10;99.90
9371;DHT22;4725;48.384;8.984;2023-04-24T03:26:53;8.10;99.90
9371;DHT22;4725;48.384;8.984;2023-04-24T03:29:21;8.20;99.90
9371;DHT22;4725;48.384;8.984;2023-04-24T03:31:48;8.20;99.90
9371;DHT22;4725;48.384;8.984;2023-04-24T03:34:15;8.20;99.90
9371;DHT22;4725;48.384;8.984;2023-04-24T03:36:42;8.20;99.90
9371;DHT22;4725;48.384;8.984;2023-04-24T03:39:08;8.10;99.90
9371;DHT22;4725;48.384;8.984;2023-04-24T03:41:37;8.20;99.90
9371;DHT22;4725;48.384;8.984;2023-04-24T03:44:03;8.20;99.90
9371;DHT22;4725;48.384;8.984;2023-04-24T03:46:30;8.10;99.90
9371;DHT22;4725;48.384;8.984;2023-04-24T03:48:57;8.10;99.90
9371;DHT22;4725;48.384;8.984;2023-04-24T03:51:24;8.10;99.90
9371;DHT22;4725;48.384;8.984;2023-04-24T03:56:20;8.10;99.90
9371;DHT22;4725;48.384;8.984;2023-04-24T03:58:48;8.00;99.90
9371;DHT22;4725;48.384;8.984;2023-04-24T04:01:15;7.90;99.90
9371;DHT22;4725;48.384;8.984;2023-04-24T04:03:42;7.80;99.90
9371;DHT22;4725;48.384;8.984;2023-04-24T04:06:09;7.60;99.90
9371;DHT22;4725;48.384;8.984;2023-04-24T04:08:38;7.50;99.90
9371;DHT22;4725;48.384;8.984;2023-04-24T04:11:05;7.40;99.90
9371;DHT22;4725;48.384;8.984;2023-04-24T04:13:32;7.40;99.90
9371;DHT22;4725;48.384;8.984;2023-04-24T04:16:00;7.40;99.90
9371;DHT22;4725;48.384;8.984;2023-04-24T04:18:27;7.40;99.90
9371;DHT22;4725;48.384;8.984;2023-04-24T04:20:53;7.40;99.90
9371;DHT22;4725;48.384;8.984;2023-04-24T04:23:22;7.40;99.90
9371;DHT22;4725;48.384;8.984;2023-04-24T04:25:49;7.40;99.90
9371;DHT22;4725;48.384;8.984;2023-04-24T04:28:17;8.80;99.90
9371;DHT22;4725;48.384;8.984;2023-04-24T04:30:45;7.40;99.90
9371;DHT22;4725;48.384;8.984;2023-04-24T04:33:13;7.50;99.90
9371;DHT22;4725;48.384;8.984;2023-04-24T04:35:41;7.80;99.90
9371;DHT22;4725;48.384;8.984;2023-04-24T04:38:08;7.80;99.90
9371;DHT22;4725;48.384;8.984;2023-04-24T04:40:36;7.80;99.90
9371;DHT22;4725;48.384;8.984;2023-04-24T04:43:03;7.90;99.90
9371;DHT22;4725;48.384;8.984;2023-04-24T04:45:30;7.90;99.90
9371;DHT22;4725;48.384;8.984;2023-04-24T04:47:58;7.40;99.90
9371;DHT22;4725;48.384;8.984;2023-04-24T04:50:27;7.30;99.90
9371;DHT22;4725;48.384;8.984;2023-04-24T04:52:54;7.30;99.90
9371;DHT22;4725;48.384;8.984;2023-04-24T04:55:21;7.40;99.90
9371;DHT22;4725;48.384;8.984;2023-04-24T04:57:48;7.40;99.90
9371;DHT22;4725;48.384;8.984;2023-04-24T05:00:15;7.40;99.90
9371;DHT22;4725;48.384;8.984;2023-04-24T05:02:42;7.40;99.90
9371;DHT22;4725;48.384;8.984;2023-04-24T05:05:09;7.40;99.90
9371;DHT22;4725;48.384;8.984;2023-04-24T05:07:38;7.20;99.90
9371;DHT22;4725;48.384;8.984;2023-04-24T05:10:05;7.20;99.90
9371;DHT22;4725;48.384;8.984;2023-04-24T05:12:32;7.10;99.90
9371;DHT22;4725;48.384;8.984;2023-04-24T05:14:59;7.10;99.90
9371;DHT22;4725;48.384;8.984;2023-04-24T05:19:53;6.90;99.90
9371;DHT22;4725;48.384;8.984;2023-04-24T05:22:20;6.80;99.90
9371;DHT22;4725;48.384;8.984;2023-04-24T05:24:49;6.70;99.90
9371;DHT22;4725;48.384;8.984;2023-04-24T05:27:15;6.70;99.90
9371;DHT22;4725;48.384;8.984;2023-04-24T05:29:42;6.70;99.90
9371;DHT22;4725;48.384;8.984;2023-04-24T05:32:10;6.70;99.90
9371;DHT22;4725;48.384;8.984;2023-04-24T05:37:04;6.60;99.90
9371;DHT22;4725;48.384;8.984;2023-04-24T05:39:33;6.60;99.90
9371;DHT22;4725;48.384;8.984;2023-04-24T05:42:02;6.60;99.90
9371;DHT22;4725;48.384;8.984;2023-04-24T05:44:30;6.60;99.90
9371;DHT22;4725;48.384;8.984;2023-04-24T05:46:57;6.80;99.90
9371;DHT22;4725;48.384;8.984;2023-04-24T05:51:51;6.90;99.90
9371;DHT22;4725;48.384;8.984;2023-04-24T05:54:17;6.80;99.90
9371;DHT22;4725;48.384;8.984;2023-04-24T05:56:44;6.90;99.90
9371;DHT22;4725;48.384;8.984;2023-04-24T05:59:13;6.90;99.90
9371;DHT22;4725;48.384;8.984;2023-04-24T06:01:40;7.10;99.90
9371;DHT22;4725;48.384;8.984;2023-04-24T06:04:07;7.10;99.90
9371;DHT22;4725;48.384;8.984;2023-04-24T06:06:35;7.20;99.90
9371;DHT22;4725;48.384;8.984;2023-04-24T06:09:02;7.20;99.90
9371;DHT22;4725;48.384;8.984;2023-04-24T06:11:29;7.40;99.90
9371;DHT22;4725;48.384;8.984;2023-04-24T06:13:56;7.40;99.90
9371;DHT22;4725;48.384;8.984;2023-04-24T06:16:24;7.50;99.90
9371;DHT22;4725;48.384;8.984;2023-04-24T06:18:51;7.50;99.90
9371;DHT22;4725;48.384;8.984;2023-04-24T06:21:18;7.50;99.90
9371;DHT22;4725;48.384;8.984;2023-04-24T06:23:45;7.50;99.90
9371;DHT22;4725;48.384;8.984;2023-04-24T06:26:12;7.40;99.90
9371;DHT22;4725;48.384;8.984;2023-04-24T06:28:40;7.60;99.90
9371;DHT22;4725;48.384;8.984;2023-04-24T06:31:07;7.80;99.90
9371;DHT22;4725;48.384;8.984;2023-04-24T06:33:35;7.80;99.90
9371;DHT22;4725;48.384;8.984;2023-04-24T06:36:02;8.00;99.90
9371;DHT22;4725;48.384;8.984;2023-04-24T06:38:29;8.10;99.90
9371;DHT22;4725;48.384;8.984;2023-04-24T06:40:56;8.30;99.90
9371;DHT22;4725;48.384;8.984;2023-04-24T06:43:23;8.40;99.90
9371;DHT22;4725;48.384;8.984;2023-04-24T06:45:50;8.30;99.90
9371;DHT22;4725;48.384;8.984;2023-04-24T06:48:16;8.20;99.90
9371;DHT22;4725;48.384;8.984;2023-04-24T06:50:45;8.20;99.90
9371;DHT22;4725;48.384;8.984;2023-04-24T06:53:12;8.40;99.90
9371;DHT22;4725;48.384;8.984;2023-04-24T06:55:40;8.60;99.90
9371;DHT22;4725;48.384;8.984;2023-04-24T06:58:07;8.80;99.90
9371;DHT22;4725;48.384;8.984;2023-04-24T07:00:34;8.90;99.90
9371;DHT22;4725;48.384;8.984;2023-04-24T07:03:01;9.00;99.90
9371;DHT22;4725;48.384;8.984;2023-04-24T07:05:28;9.10;99.90
9371;DHT22;4725;48.384;8.984;2023-04-24T07:07:56;9.00;99.90
9371;DHT22;4725;48.384;8.984;2023-04-24T07:10:24;9.10;99.90
9371;DHT22;4725;48.384;8.984;2023-04-24T07:12:52;9.10;99.90
9371;DHT22;4725;48.384;8.984;2023-04-24T07:15:19;9.00;99.90
9371;DHT22;4725;48.384;8.984;2023-04-24T07:17:46;9.20;99.90
9371;DHT22;4725;48.384;8.984;2023-04-24T07:20:13;9.30;99.90
9371;DHT22;4725;48.384;8.984;2023-04-24T07:22:41;9.40;99.90
9371;DHT22;4725;48.384;8.984;2023-04-24T07:25:09;9.10;99.90
9371;DHT22;4725;48.384;8.984;2023-04-24T07:30:04;8.40;99.90
9371;DHT22;4725;48.384;8.984;2023-04-24T07:32:32;8.40;99.90
9371;DHT22;4725;48.384;8.984;2023-04-24T07:34:59;7.90;99.90
9371;DHT22;4725;48.384;8.984;2023-04-24T07:37:26;7.40;99.90
9371;DHT22;4725;48.384;8.984;2023-04-24T07:39:52;7.40;99.90
9371;DHT22;4725;48.384;8.984;2023-04-24T07:42:21;7.50;99.90
9371;DHT22;4725;48.384;8.984;2023-04-24T07:44:48;7.60;99.90
9371;DHT22;4725;48.384;8.984;2023-04-24T07:47:14;7.80;99.90
9371;DHT22;4725;48.384;8.984;2023-04-24T07:49:42;7.90;99.90
9371;DHT22;4725;48.384;8.984;2023-04-24T07:52:09;7.90;99.90
9371;DHT22;4725;48.384;8.984;2023-04-24T07:54:36;7.90;99.90
9371;DHT22;4725;48.384;8.984;2023-04-24T07:57:03;7.80;99.90
9371;DHT22;4725;48.384;8.984;2023-04-24T07:59:33;7.80;99.90
9371;DHT22;4725;48.384;8.984;2023-04-24T08:02:00;7.90;99.90
9371;DHT22;4725;48.384;8.984;2023-04-24T08:04:27;8.20;99.90
9371;DHT22;4725;48.384;8.984;2023-04-24T08:06:54;8.30;99.90
9371;DHT22;4725;48.384;8.984;2023-04-24T08:09:21;8.30;99.90
9371;DHT22;4725;48.384;8.984;2023-04-24T08:11:48;8.20;99.90
9371;DHT22;4725;48.384;8.984;2023-04-24T08:14:15;8.20;99.90
9371;DHT22;4725;48.384;8.984;2023-04-24T08:16:43;8.50;99.90
9371;DHT22;4725;48.384;8.984;2023-04-24T08:19:10;8.50;99.90
9371;DHT22;4725;48.384;8.984;2023-04-24T08:21:37;8.70;99.90
9371;DHT22;4725;48.384;8.984;2023-04-24T08:24:04;8.70;99.90
9371;DHT22;4725;48.384;8.984;2023-04-24T08:26:33;8.80;99.90
9371;DHT22;4725;48.384;8.984;2023-04-24T08:29:00;8.80;99.90
9371;DHT22;4725;48.384;8.984;2023-04-24T08:31:26;8.70;99.90
9371;DHT22;4725;48.384;8.984;2023-04-24T08:33:55;8.40;99.90
9371;DHT22;4725;48.384;8.984;2023-04-24T08:36:22;8.50;99.90
9371;DHT22;4725;48.384;8.984;2023-04-24T08:38:49;8.60;99.90
9371;DHT22;4725;48.384;8.984;2023-04-24T08:41:18;8.50;99.90
9371;DHT22;4725;48.384;8.984;2023-04-24T08:43:46;8.70;99.90
9371;DHT22;4725;48.384;8.984;2023-04-24T08:46:13;8.70;99.90
9371;DHT22;4725;48.384;8.984;2023-04-24T08:48:42;9.00;99.90
9371;DHT22;4725;48.384;8.984;2023-04-24T08:51:10;9.00;99.90
9371;DHT22;4725;48.384;8.984;2023-04-24T08:53:37;9.10;99.90
9371;DHT22;4725;48.384;8.984;2023-04-24T08:56:05;9.10;99.90
9371;DHT22;4725;48.384;8.984;2023-04-24T08:58:33;9.00;99.90
9371;DHT22;4725;48.384;8.984;2023-04-24T09:01:00;8.90;99.90
9371;DHT22;4725;48.384;8.984;2023-04-24T09:03:28;9.00;99.90
9371;DHT22;4725;48.384;8.984;2023-04-24T09:05:55;9.80;99.90
9371;DHT22;4725;48.384;8.984;2023-04-24T09:08:26;10.00;99.90
9371;DHT22;4725;48.384;8.984;2023-04-24T09:10:53;9.90;99.90
9371;DHT22;4725;48.384;8.984;2023-04-24T09:13:20;9.70;99.90
9371;DHT22;4725;48.384;8.984;2023-04-24T09:15:47;9.90;99.90
9371;DHT22;4725;48.384;8.984;2023-04-24T09:18:14;9.60;99.90
9371;DHT22;4725;48.384;8.984;2023-04-24T09:21:06;9.60;99.90
9371;DHT22;4725;48.384;8.984;2023-04-24T09:23:35;9.60;99.90
9371;DHT22;4725;48.384;8.984;2023-04-24T09:26:03;9.20;99.90
9371;DHT22;4725;48.384;8.984;2023-04-24T09:28:32;8.40;99.90
9371;DHT22;4725;48.384;8.984;2023-04-24T09:31:08;8.20;99.90
9371;DHT22;4725;48.384;8.984;2023-04-24T09:33:36;8.10;99.90
9371;DHT22;4725;48.384;8.984;2023-04-24T09:36:03;8.30;99.90
9371;DHT22;4725;48.384;8.984;2023-04-24T09:38:32;8.60;99.90
9371;DHT22;4725;48.384;8.984;2023-04-24T09:41:02;8.80;99.90
9371;DHT22;4725;48.384;8.984;2023-04-24T09:43:29;9.10;99.90
9371;DHT22;4725;48.384;8.984;2023-04-24T09:45:57;9.30;99.90
9371;DHT22;4725;48.384;8.984;2023-04-24T09:48:31;9.20;99.90
9371;DHT22;4725;48.384;8.984;2023-04-24T09:51:00;9.40;99.90
9371;DHT22;4725;48.384;8.984;2023-04-24T09:53:27;10.00;99.90
9371;DHT22;4725;48.384;8.984;2023-04-24T09:55:54;10.10;99.90
9371;DHT22;4725;48.384;8.984;2023-04-24T09:58:26;9.70;99.90
9371;DHT22;4725;48.384;8.984;2023-04-24T10:00:56;9.50;99.90
9371;DHT22;4725;48.384;8.984;2023-04-24T10:03:24;9.30;99.90
9371;DHT22;4725;48.384;8.984;2023-04-24T10:05:53;8.90;99.90
9371;DHT22;4725;48.384;8.984;2023-04-24T10:08:20;9.30;99.90
9371;DHT22;4725;48.384;8.984;2023-04-24T10:10:48;9.70;99.90
9371;DHT22;4725;48.384;8.984;2023-04-24T10:13:15;10.00;99.90
9371;DHT22;4725;48.384;8.984;2023-04-24T10:15:43;10.30;99.90
9371;DHT22;4725;48.384;8.984;2023-04-24T10:18:11;10.90;99.90
9371;DHT22;4725;48.384;8.984;2023-04-24T10:20:39;11.00;99.90
9371;DHT22;4725;48.384;8.984;2023-04-24T10:23:06;10.70;99.90
9371;DHT22;4725;48.384;8.984;2023-04-24T10:25:34;8.70;99.90
9371;DHT22;4725;48.384;8.984;2023-04-24T10:28:02;10.10;99.90
9371;DHT22;4725;48.384;8.984;2023-04-24T10:30:30;10.60;99.90
9371;DHT22;4725;48.384;8.984;2023-04-24T10:33:02;11.10;99.90
9371;DHT22;4725;48.384;8.984;2023-04-24T10:35:31;11.40;99.90
9371;DHT22;4725;48.384;8.984;2023-04-24T10:38:01;11.60;99.90
9371;DHT22;4725;48.384;8.984;2023-04-24T10:40:30;11.80;99.90
9371;DHT22;4725;48.384;8.984;2023-04-24T10:42:58;11.70;99.90
9371;DHT22;4725;48.384;8.984;2023-04-24T10:45:25;11.60;99.90
9371;DHT22;4725;48.384;8.984;2023-04-24T10:47:53;11.20;99.90
9371;DHT22;4725;48.384;8.984;2023-04-24T10:50:25;11.20;99.90
9371;DHT22;4725;48.384;8.984;2023-04-24T10:52:52;11.40;99.90
9371;DHT22;4725;48.384;8.984;2023-04-24T10:55:43;11.20;99.90
9371;DHT22;4725;48.384;8.984;2023-04-24T10:58:10;11.20;99.90
9371;DHT22;4725;48.384;8.984;2023-04-24T11:00:38;10.90;99.90
9371;DHT22;4725;48.384;8.984;2023-04-24T11:03:05;10.60;99.90
9371;DHT22;4725;48.384;8.984;2023-04-24T11:05:52;10.70;99.90
9371;DHT22;4725;48.384;8.984;2023-04-24T11:08:24;11.00;99.90
9371;DHT22;4725;48.384;8.984;2023-04-24T11:11:00;11.30;99.90
9371;DHT22;4725;48.384;8.984;2023-04-24T11:16:25;11.50;99.90
9371;DHT22;4725;48.384;8.984;2023-04-24T11:19:00;11.50;99.90
9371;DHT22;4725;48.384;8.984;2023-04-24T11:21:38;11.50;99.90
9371;DHT22;4725;48.384;8.984;2023-04-24T11:24:26;11.40;99.90
9371;DHT22;4725;48.384;8.984;2023-04-24T11:26:55;11.40;99.90
9371;DHT22;4725;48.384;8.984;2023-04-24T11:29:24;11.40;99.90
9371;DHT22;4725;48.384;8.984;2023-04-24T11:32:18;11.60;99.90
9371;DHT22;4725;48.384;8.984;2023-04-24T11:34:47;12.00;99.90
9371;DHT22;4725;48.384;8.984;2023-04-24T11:37:15;11.70;99.90
9371;DHT22;4725;48.384;8.984;2023-04-24T11:39:42;11.60;99.90
9371;DHT22;4725;48.384;8.984;2023-04-24T11:42:09;11.50;99.90
9371;DHT22;4725;48.384;8.984;2023-04-24T11:44:36;11.20;99.90
9371;DHT22;4725;48.384;8.984;2023-04-24T11:47:04;11.10;99.90
9371;DHT22;4725;48.384;8.984;2023-04-24T11:49:32;11.10;99.90
9371;DHT22;4725;48.384;8.984;2023-04-24T11:52:00;10.90;99.90
9371;DHT22;4725;48.384;8.984;2023-04-24T11:54:28;10.70;99.90
9371;DHT22;4725;48.384;8.984;2023-04-24T11:56:56;11.00;99.90
9371;DHT22;4725;48.384;8.984;2023-04-24T11:59:23;10.90;99.90
9371;DHT22;4725;48.384;8.984;2023-04-24T12:01:50;10.90;99.90
9371;DHT22;4725;48.384;8.984;2023-04-24T12:04:17;10.60;99.90
9371;DHT22;4725;48.384;8.984;2023-04-24T12:06:59;10.40;99.90
9371;DHT22;4725;48.384;8.984;2023-04-24T12:09:28;10.40;99.90
9371;DHT22;4725;48.384;8.984;2023-04-24T12:11:55;10.10;99.90
9371;DHT22;4725;48.384;8.984;2023-04-24T12:14:23;9.80;99.90
9371;DHT22;4725;48.384;8.984;2023-04-24T12:16:50;9.50;99.90
9371;DHT22;4725;48.384;8.984;2023-04-24T12:19:21;9.40;99.90
9371;DHT22;4725;48.384;8.984;2023-04-24T12:21:59;9.60;99.90
9371;DHT22;4725;48.384;8.984;2023-04-24T12:24:28;9.80;99.90
9371;DHT22;4725;48.384;8.984;2023-04-24T12:26:55;9.70;99.90
9371;DHT22;4725;48.384;8.984;2023-04-24T12:29:23;9.70;99.90
9371;DHT22;4725;48.384;8.984;2023-04-24T12:31:50;9.80;99.90
9371;DHT22;4725;48.384;8.984;2023-04-24T12:34:18;9.80;99.90
9371;DHT22;4725;48.384;8.984;2023-04-24T12:39:15;9.90;99.90
9371;DHT22;4725;48.384;8.984;2023-04-24T12:41:54;9.80;99.90
9371;DHT22;4725;48.384;8.984;2023-04-24T12:44:29;10.00;99.90
9371;DHT22;4725;48.384;8.984;2023-04-24T12:46:57;10.50;99.90
9371;DHT22;4725;48.384;8.984;2023-04-24T12:49:24;10.50;99.90
9371;DHT22;4725;48.384;8.984;2023-04-24T12:51:51;10.30;99.90
9371;DHT22;4725;48.384;8.984;2023-04-24T12:56:45;10.40;99.90
9371;DHT22;4725;48.384;8.984;2023-04-24T12:59:13;10.80;99.90
9371;DHT22;4725;48.384;8.984;2023-04-24T13:01:40;11.10;99.90
9371;DHT22;4725;48.384;8.984;2023-04-24T13:04:07;10.90;99.90
9371;DHT22;4725;48.384;8.984;2023-04-24T13:06:34;10.90;99.90
9371;DHT22;4725;48.384;8.984;2023-04-24T13:09:01;11.70;99.90
9371;DHT22;4725;48.384;8.984;2023-04-24T13:11:28;12.00;99.90
9371;DHT22;4725;48.384;8.984;2023-04-24T13:13:55;12.20;99.90
9371;DHT22;4725;48.384;8.984;2023-04-24T13:16:23;12.40;99.90
9371;DHT22;4725;48.384;8.984;2023-04-24T13:18:50;12.80;99.90
9371;DHT22;4725;48.384;8.984;2023-04-24T13:21:17;12.60;99.90
9371;DHT22;4725;48.384;8.984;2023-04-24T13:23:44;12.30;99.90
9371;DHT22;4725;48.384;8.984;2023-04-24T13:26:10;12.30;99.90
9371;DHT22;4725;48.384;8.984;2023-04-24T13:28:37;12.00;99.90
9371;DHT22;4725;48.384;8.984;2023-04-24T13:31:04;11.80;99.90
9371;DHT22;4725;48.384;8.984;2023-04-24T13:33:33;11.60;99.90
9371;DHT22;4725;48.384;8.984;2023-04-24T13:36:00;11.60;99.90
9371;DHT22;4725;48.384;8.984;2023-04-24T13:38:26;12.10;99.90
9371;DHT22;4725;48.384;8.984;2023-04-24T13:40:54;12.40;99.90
9371;DHT22;4725;48.384;8.984;2023-04-24T13:43:21;12.50;99.90
9371;DHT22;4725;48.384;8.984;2023-04-24T13:45:48;12.70;99.90
9371;DHT22;4725;48.384;8.984;2023-04-24T13:48:15;12.30;99.90
9371;DHT22;4725;48.384;8.984;2023-04-24T13:50:43;12.20;99.90
9371;DHT22;4725;48.384;8.984;2023-04-24T13:53:13;12.50;99.90
9371;DHT22;4725;48.384;8.984;2023-04-24T13:55:40;12.60;99.90
9371;DHT22;4725;48.384;8.984;2023-04-24T13:58:07;12.60;99.90
9371;DHT22;4725;48.384;8.984;2023-04-24T14:00:34;12.80;99.90
9371;DHT22;4725;48.384;8.984;2023-04-24T14:03:01;12.80;99.90
9371;DHT22;4725;48.384;8.984;2023-04-24T14:05:27;12.80;99.90
9371;DHT22;4725;48.384;8.984;2023-04-24T14:07:56;12.60;99.90
9371;DHT22;4725;48.384;8.984;2023-04-24T14:10:22;12.60;99.90
9371;DHT22;4725;48.384;8.984;2023-04-24T14:12:50;12.00;99.90
9371;DHT22;4725;48.384;8.984;2023-04-24T14:15:17;11.80;99.90
9371;DHT22;4725;48.384;8.984;2023-04-24T14:17:44;11.80;99.90
9371;DHT22;4725;48.384;8.984;2023-04-24T14:20:12;11.70;99.90
9371;DHT22;4725;48.384;8.984;2023-04-24T14:22:39;11.30;99.90
9371;DHT22;4725;48.384;8.984;2023-04-24T14:25:08;11.40;99.90
9371;DHT22;4725;48.384;8.984;2023-04-24T14:27:35;11.40;99.90
9371;DHT22;4725;48.384;8.984;2023-04-24T14:30:02;11.40;99.90
9371;DHT22;4725;48.384;8.984;2023-04-24T14:32:29;11.60;99.90
9371;DHT22;4725;48.384;8.984;2023-04-24T14:34:56;11.90;99.90
9371;DHT22;4725;48.384;8.984;2023-04-24T14:37:23;12.10;99.90
9371;DHT22;4725;48.384;8.984;2023-04-24T14:39:50;12.00;99.90
9371;DHT22;4725;48.384;8.984;2023-04-24T14:42:18;11.90;99.90
9371;DHT22;4725;48.384;8.984;2023-04-24T14:44:45;11.80;99.90
9371;DHT22;4725;48.384;8.984;2023-04-24T14:47:12;11.50;99.90
9371;DHT22;4725;48.384;8.984;2023-04-24T14:49:39;13.50;99.90
9371;DHT22;4725;48.384;8.984;2023-04-24T14:52:05;11.20;99.90
9371;DHT22;4725;48.384;8.984;2023-04-24T14:54:32;11.30;99.90
9371;DHT22;4725;48.384;8.984;2023-04-24T14:56:59;11.30;99.90
9371;DHT22;4725;48.384;8.984;2023-04-24T14:59:28;11.00;99.90
9371;DHT22;4725;48.384;8.984;2023-04-24T15:01:56;11.00;99.90
9371;DHT22;4725;48.384;8.984;2023-04-24T15:04:23;11.10;99.90
9371;DHT22;4725;48.384;8.984;2023-04-24T15:06:51;11.10;99.90
9371;DHT22;4725;48.384;8.984;2023-04-24T15:09:19;11.10;99.90
9371;DHT22;4725;48.384;8.984;2023-04-24T15:11:46;11.00;99.90
9371;DHT22;4725;48.384;8.984;2023-04-24T15:14:13;10.90;99.90
9371;DHT22;4725;48.384;8.984;2023-04-24T15:16:41;10.90;99.90
9371;DHT22;4725;48.384;8.984;2023-04-24T15:19:08;11.10;99.90
9371;DHT22;4725;48.384;8.984;2023-04-24T15:21:36;11.10;99.90
9371;DHT22;4725;48.384;8.984;2023-04-24T15:24:03;11.20;99.90
9371;DHT22;4725;48.384;8.984;2023-04-24T15:26:30;12.60;99.90
9371;DHT22;4725;48.384;8.984;2023-04-24T15:28:57;16.50;98.80
9371;DHT22;4725;48.384;8.984;2023-04-24T15:31:24;16.40;98.70
9371;DHT22;4725;48.384;8.984;2023-04-24T15:33:52;16.00;98.70
9371;DHT22;4725;48.384;8.984;2023-04-24T15:36:19;15.20;99.00
9371;DHT22;4725;48.384;8.984;2023-04-24T15:38:46;14.20;99.90
9371;DHT22;4725;48.384;8.984;2023-04-24T15:41:13;13.80;99.90
9371;DHT22;4725;48.384;8.984;2023-04-24T15:43:40;13.40;99.90
9371;DHT22;4725;48.384;8.984;2023-04-24T15:46:09;13.30;99.90
9371;DHT22;4725;48.384;8.984;2023-04-24T15:48:36;13.20;99.90
9371;DHT22;4725;48.384;8.984;2023-04-24T15:51:05;13.30;99.90
9371;DHT22;4725;48.384;8.984;2023-04-24T15:53:32;13.30;99.90
9371;DHT22;4725;48.384;8.984;2023-04-24T15:55:59;13.40;99.90
9371;DHT22;4725;48.384;8.984;2023-04-24T15:58:26;14.70;99.80
9371;DHT22;4725;48.384;8.984;2023-04-24T16:00:53;15.50;98.80
9371;DHT22;4725;48.384;8.984;2023-04-24T16:03:20;16.70;98.30
9371;DHT22;4725;48.384;8.984;2023-04-24T16:05:47;17.10;96.00
9371;DHT22;4725;48.384;8.984;2023-04-24T16:08:15;17.60;94.90
9371;DHT22;4725;48.384;8.984;2023-04-24T16:10:42;18.00;95.90
9371;DHT22;4725;48.384;8.984;2023-04-24T16:13:11;18.90;95.20
9371;DHT22;4725;48.384;8.984;2023-04-24T16:15:38;19.30;93.90
9371;DHT22;4725;48.384;8.984;2023-04-24T16:18:06;20.00;92.00
9371;DHT22;4725;48.384;8.984;2023-04-24T16:20:33;20.40;91.60
9371;DHT22;4725;48.384;8.984;2023-04-24T16:22:59;20.40;90.50
9371;DHT22;4725;48.384;8.984;2023-04-24T16:25:28;19.30;91.30
9371;DHT22;4725;48.384;8.984;2023-04-24T16:27:55;17.70;92.70
9371;DHT22;4725;48.384;8.984;2023-04-24T16:30:22;18.00;93.80
9371;DHT22;4725;48.384;8.984;2023-04-24T16:32:49;17.70;93.20
9371;DHT22;4725;48.384;8.984;2023-04-24T16:35:16;16.90;94.50
9371;DHT22;4725;48.384;8.984;2023-04-24T16:37:42;17.50;93.80
9371;DHT22;4725;48.384;8.984;2023-04-24T16:40:10;17.10;94.20
9371;DHT22;4725;48.384;8.984;2023-04-24T16:42:39;17.30;95.00
9371;DHT22;4725;48.384;8.984;2023-04-24T16:45:07;17.90;93.00